sensor_id;sensor_type;location;lat;lon;timestamp;temperature;humidity
70079;DHT22;57451;52.496;13.456;2023-07-22T00:01:27;15.20;72.80
70079;DHT22;57451;52.496;13.456;2023-07-22T00:03:54;15.20;72.60
70079;DHT22;57451;52.496;13.456;2023-07-22T00:06:23;15.20;73.50
70079;DHT22;57451;52.496;13.456;2023-07-22T00:08:51;15.20;73.30
70079;DHT22;57451;52.496;13.456;2023-07-22T00:11:18;15.20;73.30
70079;DHT22;57451;52.496;13.456;2023-07-22T00:13:47;15.20;73.20
70079;DHT22;57451;52.496;13.456;2023-07-22T00:16:14;15.10;73.00
70079;DHT22;57451;52.496;13.456;2023-07-22T00:18:41;15.20;73.30
70079;DHT22;57451;52.496;13.456;2023-07-22T00:21:09;15.20;73.50
70079;DHT22;57451;52.496;13.456;2023-07-22T00:23:37;15.20;73.80
70079;DHT22;57451;52.496;13.456;2023-07-22T00:26:05;15.10;73.40
70079;DHT22;57451;52.496;13.456;2023-07-22T00:28:33;15.20;73.60
70079;DHT22;57451;52.496;13.456;2023-07-22T00:31:02;15.20;73.40
70079;DHT22;57451;52.496;13.456;2023-07-22T00:33:30;15.10;74.00
70079;DHT22;57451;52.496;13.456;2023-07-22T00:35:57;15.10;73.90
70079;DHT22;57451;52.496;13.456;2023-07-22T00:38:25;15.10;74.60
70079;DHT22;57451;52.496;13.456;2023-07-22T00:40:54;15.10;74.50
70079;DHT22;57451;52.496;13.456;2023-07-22T00:43:21;15.10;74.10
70079;DHT22;57451;52.496;13.456;2023-07-22T00:45:48;15.10;74.80
70079;DHT22;57451;52.496;13.456;2023-07-22T00:48:16;15.10;74.20
70079;DHT22;57451;52.496;13.456;2023-07-22T00:50:44;15.10;74.30
70079;DHT22;57451;52.496;13.456;2023-07-22T00:53:12;15.10;74.20
70079;DHT22;57451;52.496;13.456;2023-07-22T00:55:40;15.10;74.60
70079;DHT22;57451;52.496;13.456;2023-07-22T00:58:11;15.20;74.50
70079;DHT22;57451;52.496;13.456;2023-07-22T01:00:38;15.20;74.50
70079;DHT22;57451;52.496;13.456;2023-07-22T01:03:06;15.20;74.30
70079;DHT22;57451;52.496;13.456;2023-07-22T01:05:35;15.20;74.30
70079;DHT22;57451;52.496;13.456;2023-07-22T01:08:04;15.20;74.20
70079;DHT22;57451;52.496;13.456;2023-07-22T01:10:32;15.30;74.50
70079;DHT22;57451;52.496;13.456;2023-07-22T01:12:59;15.20;74.60
70079;DHT22;57451;52.496;13.456;2023-07-22T01:15:28;15.30;74.50
70079;DHT22;57451;52.496;13.456;2023-07-22T01:17:56;15.20;74.70
70079;DHT22;57451;52.496;13.456;2023-07-22T01:20:29;15.30;74.80
70079;DHT22;57451;52.496;13.456;2023-07-22T01:22:58;15.30;75.20
70079;DHT22;57451;52.496;13.456;2023-07-22T01:25:26;15.30;75.20
70079;DHT22;57451;52.496;13.456;2023-07-22T01:27:56;15.30;75.50
70079;DHT22;57451;52.496;13.456;2023-07-22T01:30:26;15.20;75.10
70079;DHT22;57451;52.496;13.456;2023-07-22T01:32:55;15.30;74.80
70079;DHT22;57451;52.496;13.456;2023-07-22T01:35:23;15.30;75.10
70079;DHT22;57451;52.496;13.456;2023-07-22T01:37:50;15.30;74.90
70079;DHT22;57451;52.496;13.456;2023-07-22T01:40:19;15.30;75.50
70079;DHT22;57451;52.496;13.456;2023-07-22T01:42:46;15.30;75.70
70079;DHT22;57451;52.496;13.456;2023-07-22T01:45:14;15.30;75.50
70079;DHT22;57451;52.496;13.456;2023-07-22T01:47:41;15.40;76.00
70079;DHT22;57451;52.496;13.456;2023-07-22T01:50:09;15.40;75.90
70079;DHT22;57451;52.496;13.456;2023-07-22T01:52:37;15.40;75.50
70079;DHT22;57451;52.496;13.456;2023-07-22T01:55:05;15.40;75.90
70079;DHT22;57451;52.496;13.456;2023-07-22T01:57:34;15.40;75.80
70079;DHT22;57451;52.496;13.456;2023-07-22T02:00:02;15.40;75.70
70079;DHT22;57451;52.496;13.456;2023-07-22T02:02:38;15.50;76.00
70079;DHT22;57451;52.496;13.456;2023-07-22T02:05:08;15.40;75.90
70079;DHT22;57451;52.496;13.456;2023-07-22T02:07:38;15.40;76.50
70079;DHT22;57451;52.496;13.456;2023-07-22T02:10:06;15.30;76.60
70079;DHT22;57451;52.496;13.456;2023-07-22T02:12:35;15.30;77.00
70079;DHT22;57451;52.496;13.456;2023-07-22T02:15:03;15.30;77.40
70079;DHT22;57451;52.496;13.456;2023-07-22T02:17:30;15.30;76.90
70079;DHT22;57451;52.496;13.456;2023-07-22T02:19:58;15.30;77.30
70079;DHT22;57451;52.496;13.456;2023-07-22T02:22:25;15.30;76.70
70079;DHT22;57451;52.496;13.456;2023-07-22T02:24:53;15.30;76.60
70079;DHT22;57451;52.496;13.456;2023-07-22T02:27:20;15.30;76.50
70079;DHT22;57451;52.496;13.456;2023-07-22T02:29:49;15.30;76.70
70079;DHT22;57451;52.496;13.456;2023-07-22T02:32:16;15.30;76.30
70079;DHT22;57451;52.496;13.456;2023-07-22T02:34:44;15.30;76.10
70079;DHT22;57451;52.496;13.456;2023-07-22T02:37:11;15.30;75.80
70079;DHT22;57451;52.496;13.456;2023-07-22T02:39:38;15.30;75.90
70079;DHT22;57451;52.496;13.456;2023-07-22T02:42:06;15.20;75.90
70079;DHT22;57451;52.496;13.456;2023-07-22T02:44:34;15.20;75.80
70079;DHT22;57451;52.496;13.456;2023-07-22T02:47:03;15.20;76.00
70079;DHT22;57451;52.496;13.456;2023-07-22T02:49:30;15.20;75.90
70079;DHT22;57451;52.496;13.456;2023-07-22T02:51:57;15.10;75.80
70079;DHT22;57451;52.496;13.456;2023-07-22T02:54:25;15.10;76.20
70079;DHT22;57451;52.496;13.456;2023-07-22T02:56:52;15.10;76.50
70079;DHT22;57451;52.496;13.456;2023-07-22T02:59:20;15.00;76.40
70079;DHT22;57451;52.496;13.456;2023-07-22T03:01:47;15.00;75.80
70079;DHT22;57451;52.496;13.456;2023-07-22T03:04:16;15.10;75.80
70079;DHT22;57451;52.496;13.456;2023-07-22T03:06:43;15.10;75.60
70079;DHT22;57451;52.496;13.456;2023-07-22T03:09:12;15.00;75.80
70079;DHT22;57451;52.496;13.456;2023-07-22T03:11:39;15.00;75.70
70079;DHT22;57451;52.496;13.456;2023-07-22T03:14:06;15.00;76.20
70079;DHT22;57451;52.496;13.456;2023-07-22T03:16:34;15.00;76.00
70079;DHT22;57451;52.496;13.456;2023-07-22T03:19:01;14.90;76.30
70079;DHT22;57451;52.496;13.456;2023-07-22T03:21:30;14.90;76.00
70079;DHT22;57451;52.496;13.456;2023-07-22T03:23:57;14.80;76.10
70079;DHT22;57451;52.496;13.456;2023-07-22T03:26:24;14.80;75.90
70079;DHT22;57451;52.496;13.456;2023-07-22T03:28:53;14.80;75.90
70079;DHT22;57451;52.496;13.456;2023-07-22T03:31:20;14.80;75.80
70079;DHT22;57451;52.496;13.456;2023-07-22T03:33:48;14.80;76.00
70079;DHT22;57451;52.496;13.456;2023-07-22T03:36:17;14.80;75.30
70079;DHT22;57451;52.496;13.456;2023-07-22T03:38:45;14.80;75.80
70079;DHT22;57451;52.496;13.456;2023-07-22T03:41:13;14.80;75.50
70079;DHT22;57451;52.496;13.456;2023-07-22T03:43:40;14.80;75.80
70079;DHT22;57451;52.496;13.456;2023-07-22T03:46:07;14.80;75.70
70079;DHT22;57451;52.496;13.456;2023-07-22T03:48:35;14.80;75.70
70079;DHT22;57451;52.496;13.456;2023-07-22T03:51:02;14.70;76.10
70079;DHT22;57451;52.496;13.456;2023-07-22T03:53:47;14.70;75.90
70079;DHT22;57451;52.496;13.456;2023-07-22T03:56:14;14.80;76.00
70079;DHT22;57451;52.496;13.456;2023-07-22T03:58:42;14.80;75.90
70079;DHT22;57451;52.496;13.456;2023-07-22T04:01:10;14.80;75.50
70079;DHT22;57451;52.496;13.456;2023-07-22T04:03:38;14.80;75.70
70079;DHT22;57451;52.496;13.456;2023-07-22T04:06:05;14.80;76.00
70079;DHT22;57451;52.496;13.456;2023-07-22T04:08:32;14.70;75.80
70079;DHT22;57451;52.496;13.456;2023-07-22T04:11:01;14.70;76.20
70079;DHT22;57451;52.496;13.456;2023-07-22T04:13:29;14.70;76.10
70079;DHT22;57451;52.496;13.456;2023-07-22T04:15:57;14.80;76.10
70079;DHT22;57451;52.496;13.456;2023-07-22T04:18:24;14.70;76.00
70079;DHT22;57451;52.496;13.456;2023-07-22T04:20:56;14.70;75.90
70079;DHT22;57451;52.496;13.456;2023-07-22T04:23:24;14.70;76.20
70079;DHT22;57451;52.496;13.456;2023-07-22T04:25:52;14.70;76.20
70079;DHT22;57451;52.496;13.456;2023-07-22T04:28:20;14.70;75.90
70079;DHT22;57451;52.496;13.456;2023-07-22T04:30:55;14.80;75.60
70079;DHT22;57451;52.496;13.456;2023-07-22T04:33:23;14.80;75.20
70079;DHT22;57451;52.496;13.456;2023-07-22T04:35:53;14.80;75.20
70079;DHT22;57451;52.496;13.456;2023-07-22T04:38:21;14.70;75.30
70079;DHT22;57451;52.496;13.456;2023-07-22T04:40:48;14.70;75.40
70079;DHT22;57451;52.496;13.456;2023-07-22T04:43:16;14.70;75.80
70079;DHT22;57451;52.496;13.456;2023-07-22T04:45:48;14.70;75.60
70079;DHT22;57451;52.496;13.456;2023-07-22T04:48:18;14.70;75.40
70079;DHT22;57451;52.496;13.456;2023-07-22T04:50:46;14.70;75.60
70079;DHT22;57451;52.496;13.456;2023-07-22T04:53:13;14.70;75.30
70079;DHT22;57451;52.496;13.456;2023-07-22T04:55:41;14.70;75.10
70079;DHT22;57451;52.496;13.456;2023-07-22T04:58:08;14.80;75.40
70079;DHT22;57451;52.496;13.456;2023-07-22T05:00:38;14.80;75.60
70079;DHT22;57451;52.496;13.456;2023-07-22T05:03:06;14.90;75.50
70079;DHT22;57451;52.496;13.456;2023-07-22T05:05:34;14.90;75.40
70079;DHT22;57451;52.496;13.456;2023-07-22T05:08:03;14.90;75.40
70079;DHT22;57451;52.496;13.456;2023-07-22T05:10:31;14.90;75.10
70079;DHT22;57451;52.496;13.456;2023-07-22T05:12:58;14.90;74.60
70079;DHT22;57451;52.496;13.456;2023-07-22T05:15:26;14.90;75.20
70079;DHT22;57451;52.496;13.456;2023-07-22T05:17:53;15.00;74.90
70079;DHT22;57451;52.496;13.456;2023-07-22T05:20:22;15.00;75.20
70079;DHT22;57451;52.496;13.456;2023-07-22T05:22:49;15.00;75.30
70079;DHT22;57451;52.496;13.456;2023-07-22T05:25:17;15.00;75.10
70079;DHT22;57451;52.496;13.456;2023-07-22T05:27:44;15.00;75.20
70079;DHT22;57451;52.496;13.456;2023-07-22T05:30:12;15.00;75.40
70079;DHT22;57451;52.496;13.456;2023-07-22T05:32:59;15.00;75.10
70079;DHT22;57451;52.496;13.456;2023-07-22T05:35:28;15.00;74.90
70079;DHT22;57451;52.496;13.456;2023-07-22T05:37:56;15.10;74.80
70079;DHT22;57451;52.496;13.456;2023-07-22T05:40:23;15.10;75.20
70079;DHT22;57451;52.496;13.456;2023-07-22T05:42:50;15.20;75.30
70079;DHT22;57451;52.496;13.456;2023-07-22T05:45:18;15.10;75.50
70079;DHT22;57451;52.496;13.456;2023-07-22T05:47:45;15.20;75.20
70079;DHT22;57451;52.496;13.456;2023-07-22T05:50:13;15.30;75.00
70079;DHT22;57451;52.496;13.456;2023-07-22T05:52:41;15.30;75.20
70079;DHT22;57451;52.496;13.456;2023-07-22T05:55:09;15.30;74.90
70079;DHT22;57451;52.496;13.456;2023-07-22T05:57:36;15.40;74.60
70079;DHT22;57451;52.496;13.456;2023-07-22T06:00:04;15.50;74.70
70079;DHT22;57451;52.496;13.456;2023-07-22T06:02:41;15.50;74.30
70079;DHT22;57451;52.496;13.456;2023-07-22T06:05:09;15.50;74.30
70079;DHT22;57451;52.496;13.456;2023-07-22T06:07:36;15.60;74.30
70079;DHT22;57451;52.496;13.456;2023-07-22T06:10:06;15.60;73.80
70079;DHT22;57451;52.496;13.456;2023-07-22T06:12:34;15.60;73.60
70079;DHT22;57451;52.496;13.456;2023-07-22T06:15:02;15.70;73.80
70079;DHT22;57451;52.496;13.456;2023-07-22T06:17:29;15.80;74.10
70079;DHT22;57451;52.496;13.456;2023-07-22T06:19:57;15.80;73.40
70079;DHT22;57451;52.496;13.456;2023-07-22T06:22:24;15.90;73.70
70079;DHT22;57451;52.496;13.456;2023-07-22T06:24:52;16.00;73.00
70079;DHT22;57451;52.496;13.456;2023-07-22T06:27:21;16.10;73.50
70079;DHT22;57451;52.496;13.456;2023-07-22T06:29:48;16.10;72.60
70079;DHT22;57451;52.496;13.456;2023-07-22T06:32:15;16.20;72.20
70079;DHT22;57451;52.496;13.456;2023-07-22T06:34:43;16.20;71.80
70079;DHT22;57451;52.496;13.456;2023-07-22T06:37:10;16.30;71.70
70079;DHT22;57451;52.496;13.456;2023-07-22T06:39:37;16.30;70.90
70079;DHT22;57451;52.496;13.456;2023-07-22T06:42:05;16.30;70.80
70079;DHT22;57451;52.496;13.456;2023-07-22T06:44:34;16.30;71.30
70079;DHT22;57451;52.496;13.456;2023-07-22T06:47:02;16.40;70.70
70079;DHT22;57451;52.496;13.456;2023-07-22T06:49:29;16.50;70.70
70079;DHT22;57451;52.496;13.456;2023-07-22T06:51:56;16.50;70.20
70079;DHT22;57451;52.496;13.456;2023-07-22T06:54:24;16.60;69.90
70079;DHT22;57451;52.496;13.456;2023-07-22T06:56:51;16.60;69.90
70079;DHT22;57451;52.496;13.456;2023-07-22T06:59:18;16.70;70.00
70079;DHT22;57451;52.496;13.456;2023-07-22T07:01:47;16.80;69.90
70079;DHT22;57451;52.496;13.456;2023-07-22T07:04:14;16.90;69.30
70079;DHT22;57451;52.496;13.456;2023-07-22T07:06:42;17.00;68.00
70079;DHT22;57451;52.496;13.456;2023-07-22T07:09:09;17.10;68.60
70079;DHT22;57451;52.496;13.456;2023-07-22T07:11:37;17.20;67.70
70079;DHT22;57451;52.496;13.456;2023-07-22T07:14:04;17.20;66.90
70079;DHT22;57451;52.496;13.456;2023-07-22T07:16:32;17.30;66.10
70079;DHT22;57451;52.496;13.456;2023-07-22T07:19:02;17.40;65.50
70079;DHT22;57451;52.496;13.456;2023-07-22T07:21:29;17.40;65.10
70079;DHT22;57451;52.496;13.456;2023-07-22T07:23:57;17.30;64.10
70079;DHT22;57451;52.496;13.456;2023-07-22T07:26:24;17.40;64.70
70079;DHT22;57451;52.496;13.456;2023-07-22T07:28:54;17.50;64.60
70079;DHT22;57451;52.496;13.456;2023-07-22T07:31:21;17.60;64.30
70079;DHT22;57451;52.496;13.456;2023-07-22T07:33:48;17.60;63.40
70079;DHT22;57451;52.496;13.456;2023-07-22T07:36:17;17.70;63.10
70079;DHT22;57451;52.496;13.456;2023-07-22T07:38:45;17.70;62.20
70079;DHT22;57451;52.496;13.456;2023-07-22T07:41:12;17.70;62.60
70079;DHT22;57451;52.496;13.456;2023-07-22T07:43:41;17.70;62.20
70079;DHT22;57451;52.496;13.456;2023-07-22T07:46:13;17.60;62.20
70079;DHT22;57451;52.496;13.456;2023-07-22T07:48:41;17.60;61.80
70079;DHT22;57451;52.496;13.456;2023-07-22T07:51:08;17.50;61.60
70079;DHT22;57451;52.496;13.456;2023-07-22T07:53:37;17.60;62.20
70079;DHT22;57451;52.496;13.456;2023-07-22T07:56:04;17.70;62.30
70079;DHT22;57451;52.496;13.456;2023-07-22T07:58:32;17.70;61.60
70079;DHT22;57451;52.496;13.456;2023-07-22T08:00:59;17.80;62.10
70079;DHT22;57451;52.496;13.456;2023-07-22T08:03:27;17.80;60.80
70079;DHT22;57451;52.496;13.456;2023-07-22T08:05:54;17.80;61.40
70079;DHT22;57451;52.496;13.456;2023-07-22T08:08:22;17.80;60.30
70079;DHT22;57451;52.496;13.456;2023-07-22T08:10:58;17.90;61.30
70079;DHT22;57451;52.496;13.456;2023-07-22T08:13:26;18.00;60.30
70079;DHT22;57451;52.496;13.456;2023-07-22T08:15:54;18.00;60.50
70079;DHT22;57451;52.496;13.456;2023-07-22T08:18:22;18.10;60.70
70079;DHT22;57451;52.496;13.456;2023-07-22T08:20:49;18.20;59.70
70079;DHT22;57451;52.496;13.456;2023-07-22T08:23:16;18.20;60.50
70079;DHT22;57451;52.496;13.456;2023-07-22T08:25:44;18.20;58.30
70079;DHT22;57451;52.496;13.456;2023-07-22T08:28:12;18.20;59.30
70079;DHT22;57451;52.496;13.456;2023-07-22T08:30:40;18.20;58.20
70079;DHT22;57451;52.496;13.456;2023-07-22T08:33:08;18.30;58.30
70079;DHT22;57451;52.496;13.456;2023-07-22T08:35:36;18.40;57.30
70079;DHT22;57451;52.496;13.456;2023-07-22T08:38:04;18.40;58.10
70079;DHT22;57451;52.496;13.456;2023-07-22T08:40:33;18.50;57.90
70079;DHT22;57451;52.496;13.456;2023-07-22T08:43:02;18.50;59.00
70079;DHT22;57451;52.496;13.456;2023-07-22T08:45:32;18.60;58.90
70079;DHT22;57451;52.496;13.456;2023-07-22T08:48:02;18.80;58.40
70079;DHT22;57451;52.496;13.456;2023-07-22T08:50:42;18.80;57.10
70079;DHT22;57451;52.496;13.456;2023-07-22T08:53:12;18.80;56.50
70079;DHT22;57451;52.496;13.456;2023-07-22T08:55:40;18.80;57.20
70079;DHT22;57451;52.496;13.456;2023-07-22T08:58:08;18.80;56.70
70079;DHT22;57451;52.496;13.456;2023-07-22T09:00:38;18.80;56.60
70079;DHT22;57451;52.496;13.456;2023-07-22T09:03:06;18.80;56.40
70079;DHT22;57451;52.496;13.456;2023-07-22T09:05:35;18.80;55.40
70079;DHT22;57451;52.496;13.456;2023-07-22T09:08:04;18.90;56.90
70079;DHT22;57451;52.496;13.456;2023-07-22T09:10:32;18.90;55.90
70079;DHT22;57451;52.496;13.456;2023-07-22T09:13:00;18.90;56.20
70079;DHT22;57451;52.496;13.456;2023-07-22T09:15:28;18.90;56.30
70079;DHT22;57451;52.496;13.456;2023-07-22T09:17:57;19.00;56.40
70079;DHT22;57451;52.496;13.456;2023-07-22T09:20:24;19.10;55.70
70079;DHT22;57451;52.496;13.456;2023-07-22T09:22:53;19.20;57.20
70079;DHT22;57451;52.496;13.456;2023-07-22T09:25:39;19.20;55.60
70079;DHT22;57451;52.496;13.456;2023-07-22T09:28:06;19.20;55.00
70079;DHT22;57451;52.496;13.456;2023-07-22T09:30:36;19.30;55.90
70079;DHT22;57451;52.496;13.456;2023-07-22T09:33:19;19.40;55.30
70079;DHT22;57451;52.496;13.456;2023-07-22T09:35:48;19.50;53.90
70079;DHT22;57451;52.496;13.456;2023-07-22T09:38:22;19.60;55.00
70079;DHT22;57451;52.496;13.456;2023-07-22T09:40:50;19.60;54.80
70079;DHT22;57451;52.496;13.456;2023-07-22T09:43:17;19.70;54.90
70079;DHT22;57451;52.496;13.456;2023-07-22T09:45:47;19.80;53.70
70079;DHT22;57451;52.496;13.456;2023-07-22T09:48:16;19.80;53.90
70079;DHT22;57451;52.496;13.456;2023-07-22T09:50:44;19.90;52.80
70079;DHT22;57451;52.496;13.456;2023-07-22T09:53:15;19.90;52.00
70079;DHT22;57451;52.496;13.456;2023-07-22T09:55:43;19.90;52.30
70079;DHT22;57451;52.496;13.456;2023-07-22T09:58:11;20.00;52.50
70079;DHT22;57451;52.496;13.456;2023-07-22T10:00:47;20.00;52.70
70079;DHT22;57451;52.496;13.456;2023-07-22T10:03:19;20.00;52.20
70079;DHT22;57451;52.496;13.456;2023-07-22T10:05:48;19.90;52.50
70079;DHT22;57451;52.496;13.456;2023-07-22T10:08:18;20.00;52.70
70079;DHT22;57451;52.496;13.456;2023-07-22T10:10:46;20.00;52.60
70079;DHT22;57451;52.496;13.456;2023-07-22T10:13:14;20.10;53.00
70079;DHT22;57451;52.496;13.456;2023-07-22T10:15:42;20.10;53.40
70079;DHT22;57451;52.496;13.456;2023-07-22T10:18:09;20.00;52.10
70079;DHT22;57451;52.496;13.456;2023-07-22T10:20:39;20.00;51.90
70079;DHT22;57451;52.496;13.456;2023-07-22T10:23:08;20.10;51.90
70079;DHT22;57451;52.496;13.456;2023-07-22T10:25:37;20.10;52.30
70079;DHT22;57451;52.496;13.456;2023-07-22T10:28:06;20.20;52.00
70079;DHT22;57451;52.496;13.456;2023-07-22T10:30:34;20.20;51.40
70079;DHT22;57451;52.496;13.456;2023-07-22T10:33:01;20.20;51.00
70079;DHT22;57451;52.496;13.456;2023-07-22T10:35:41;20.30;51.70
70079;DHT22;57451;52.496;13.456;2023-07-22T10:38:13;20.40;52.50
70079;DHT22;57451;52.496;13.456;2023-07-22T10:40:49;20.50;51.00
70079;DHT22;57451;52.496;13.456;2023-07-22T10:43:17;20.60;52.10
70079;DHT22;57451;52.496;13.456;2023-07-22T10:45:50;20.60;50.30
70079;DHT22;57451;52.496;13.456;2023-07-22T10:48:17;20.60;50.60
70079;DHT22;57451;52.496;13.456;2023-07-22T10:50:47;20.70;51.30
70079;DHT22;57451;52.496;13.456;2023-07-22T10:53:20;20.70;51.00
70079;DHT22;57451;52.496;13.456;2023-07-22T10:56:11;20.80;51.00
70079;DHT22;57451;52.496;13.456;2023-07-22T10:58:58;20.80;50.00
70079;DHT22;57451;52.496;13.456;2023-07-22T11:01:37;20.90;51.40
70079;DHT22;57451;52.496;13.456;2023-07-22T11:04:12;20.90;49.50
70079;DHT22;57451;52.496;13.456;2023-07-22T11:06:53;20.90;49.60
70079;DHT22;57451;52.496;13.456;2023-07-22T11:09:35;21.00;49.20
70079;DHT22;57451;52.496;13.456;2023-07-22T11:12:04;20.90;49.20
70079;DHT22;57451;52.496;13.456;2023-07-22T11:14:33;20.90;49.00
70079;DHT22;57451;52.496;13.456;2023-07-22T11:17:02;21.00;48.20
70079;DHT22;57451;52.496;13.456;2023-07-22T11:19:33;21.00;49.50
70079;DHT22;57451;52.496;13.456;2023-07-22T11:22:03;21.00;48.30
70079;DHT22;57451;52.496;13.456;2023-07-22T11:24:33;21.10;47.80
70079;DHT22;57451;52.496;13.456;2023-07-22T11:27:03;21.00;47.00
70079;DHT22;57451;52.496;13.456;2023-07-22T11:29:31;21.00;48.00
70079;DHT22;57451;52.496;13.456;2023-07-22T11:31:59;21.00;47.40
70079;DHT22;57451;52.496;13.456;2023-07-22T11:34:26;21.00;48.10
70079;DHT22;57451;52.496;13.456;2023-07-22T11:36:55;21.10;47.50
70079;DHT22;57451;52.496;13.456;2023-07-22T11:39:25;21.20;49.60
70079;DHT22;57451;52.496;13.456;2023-07-22T11:41:53;21.30;48.70
70079;DHT22;57451;52.496;13.456;2023-07-22T11:44:22;21.40;48.50
70079;DHT22;57451;52.496;13.456;2023-07-22T11:46:53;21.50;48.40
70079;DHT22;57451;52.496;13.456;2023-07-22T11:49:25;21.50;47.10
70079;DHT22;57451;52.496;13.456;2023-07-22T11:51:57;21.50;49.20
70079;DHT22;57451;52.496;13.456;2023-07-22T11:54:26;21.60;47.80
70079;DHT22;57451;52.496;13.456;2023-07-22T11:56:54;21.70;48.00
70079;DHT22;57451;52.496;13.456;2023-07-22T11:59:36;21.80;45.90
70079;DHT22;57451;52.496;13.456;2023-07-22T12:02:04;21.80;47.30
70079;DHT22;57451;52.496;13.456;2023-07-22T12:04:33;21.80;45.90
70079;DHT22;57451;52.496;13.456;2023-07-22T12:07:02;21.90;46.90
70079;DHT22;57451;52.496;13.456;2023-07-22T12:09:32;22.10;46.70
70079;DHT22;57451;52.496;13.456;2023-07-22T12:12:00;22.20;47.50
70079;DHT22;57451;52.496;13.456;2023-07-22T12:14:34;22.30;44.90
70079;DHT22;57451;52.496;13.456;2023-07-22T12:17:02;22.30;44.70
70079;DHT22;57451;52.496;13.456;2023-07-22T12:19:30;22.40;45.30
70079;DHT22;57451;52.496;13.456;2023-07-22T12:21:57;22.40;44.80
70079;DHT22;57451;52.496;13.456;2023-07-22T12:24:26;22.50;44.60
70079;DHT22;57451;52.496;13.456;2023-07-22T12:26:55;22.50;45.60
70079;DHT22;57451;52.496;13.456;2023-07-22T12:29:23;22.60;45.30
70079;DHT22;57451;52.496;13.456;2023-07-22T12:31:50;22.70;44.60
70079;DHT22;57451;52.496;13.456;2023-07-22T12:34:17;22.70;45.10
70079;DHT22;57451;52.496;13.456;2023-07-22T12:36:45;22.80;46.20
70079;DHT22;57451;52.496;13.456;2023-07-22T12:39:12;22.90;46.80
70079;DHT22;57451;52.496;13.456;2023-07-22T12:41:39;23.00;46.80
70079;DHT22;57451;52.496;13.456;2023-07-22T12:44:08;23.20;47.00
70079;DHT22;57451;52.496;13.456;2023-07-22T12:46:35;23.30;45.20
70079;DHT22;57451;52.496;13.456;2023-07-22T12:49:03;23.30;44.60
70079;DHT22;57451;52.496;13.456;2023-07-22T12:51:30;23.40;44.60
70079;DHT22;57451;52.496;13.456;2023-07-22T12:53:58;23.50;44.70
70079;DHT22;57451;52.496;13.456;2023-07-22T12:56:25;23.50;43.60
70079;DHT22;57451;52.496;13.456;2023-07-22T12:58:53;23.60;43.90
70079;DHT22;57451;52.496;13.456;2023-07-22T13:01:21;23.60;44.10
70079;DHT22;57451;52.496;13.456;2023-07-22T13:03:49;23.60;43.30
70079;DHT22;57451;52.496;13.456;2023-07-22T13:06:16;23.60;43.60
70079;DHT22;57451;52.496;13.456;2023-07-22T13:08:44;23.60;41.80
70079;DHT22;57451;52.496;13.456;2023-07-22T13:11:11;23.60;43.90
70079;DHT22;57451;52.496;13.456;2023-07-22T13:13:38;23.70;42.40
70079;DHT22;57451;52.496;13.456;2023-07-22T13:16:06;23.70;43.40
70079;DHT22;57451;52.496;13.456;2023-07-22T13:18:34;23.70;42.90
70079;DHT22;57451;52.496;13.456;2023-07-22T13:21:02;23.80;42.60
70079;DHT22;57451;52.496;13.456;2023-07-22T13:23:29;23.80;44.30
70079;DHT22;57451;52.496;13.456;2023-07-22T13:25:56;23.90;43.70
70079;DHT22;57451;52.496;13.456;2023-07-22T13:28:25;23.90;43.30
70079;DHT22;57451;52.496;13.456;2023-07-22T13:30:52;23.90;44.50
70079;DHT22;57451;52.496;13.456;2023-07-22T13:33:19;24.00;43.60
70079;DHT22;57451;52.496;13.456;2023-07-22T13:35:48;24.10;43.90
70079;DHT22;57451;52.496;13.456;2023-07-22T13:38:17;24.10;42.70
70079;DHT22;57451;52.496;13.456;2023-07-22T13:40:45;24.00;43.20
70079;DHT22;57451;52.496;13.456;2023-07-22T13:43:12;24.00;42.60
70079;DHT22;57451;52.496;13.456;2023-07-22T13:45:40;24.00;43.60
70079;DHT22;57451;52.496;13.456;2023-07-22T13:48:08;24.00;42.90
70079;DHT22;57451;52.496;13.456;2023-07-22T13:50:35;23.90;41.70
70079;DHT22;57451;52.496;13.456;2023-07-22T13:53:06;23.90;42.00
70079;DHT22;57451;52.496;13.456;2023-07-22T13:55:33;24.00;42.40
70079;DHT22;57451;52.496;13.456;2023-07-22T13:58:00;24.00;43.10
70079;DHT22;57451;52.496;13.456;2023-07-22T14:00:28;24.10;43.90
70079;DHT22;57451;52.496;13.456;2023-07-22T14:02:55;24.10;42.80
70079;DHT22;57451;52.496;13.456;2023-07-22T14:05:24;24.20;42.70
70079;DHT22;57451;52.496;13.456;2023-07-22T14:07:52;24.10;42.40
70079;DHT22;57451;52.496;13.456;2023-07-22T14:10:21;24.20;42.90
70079;DHT22;57451;52.496;13.456;2023-07-22T14:12:48;24.30;42.40
70079;DHT22;57451;52.496;13.456;2023-07-22T14:15:15;24.20;40.70
70079;DHT22;57451;52.496;13.456;2023-07-22T14:17:43;24.10;41.80
70079;DHT22;57451;52.496;13.456;2023-07-22T14:20:11;24.00;42.00
70079;DHT22;57451;52.496;13.456;2023-07-22T14:22:39;24.00;41.90
70079;DHT22;57451;52.496;13.456;2023-07-22T14:25:07;23.90;41.80
70079;DHT22;57451;52.496;13.456;2023-07-22T14:27:37;23.70;41.30
70079;DHT22;57451;52.496;13.456;2023-07-22T14:30:06;23.60;42.50
70079;DHT22;57451;52.496;13.456;2023-07-22T14:32:34;23.60;42.40
70079;DHT22;57451;52.496;13.456;2023-07-22T14:35:01;23.60;43.10
70079;DHT22;57451;52.496;13.456;2023-07-22T14:37:30;23.60;43.00
70079;DHT22;57451;52.496;13.456;2023-07-22T14:39:57;23.60;43.50
70079;DHT22;57451;52.496;13.456;2023-07-22T14:42:25;23.60;42.90
70079;DHT22;57451;52.496;13.456;2023-07-22T14:44:53;23.60;43.50
70079;DHT22;57451;52.496;13.456;2023-07-22T14:47:21;23.60;44.20
70079;DHT22;57451;52.496;13.456;2023-07-22T14:49:48;23.70;43.80
70079;DHT22;57451;52.496;13.456;2023-07-22T14:52:18;23.60;43.40
70079;DHT22;57451;52.496;13.456;2023-07-22T14:54:46;23.50;42.90
70079;DHT22;57451;52.496;13.456;2023-07-22T14:57:13;23.40;42.70
70079;DHT22;57451;52.496;13.456;2023-07-22T14:59:40;23.30;42.30
70079;DHT22;57451;52.496;13.456;2023-07-22T15:02:09;23.20;43.50
70079;DHT22;57451;52.496;13.456;2023-07-22T15:04:37;23.20;43.80
70079;DHT22;57451;52.496;13.456;2023-07-22T15:07:05;23.20;43.70
70079;DHT22;57451;52.496;13.456;2023-07-22T15:09:32;23.10;44.30
70079;DHT22;57451;52.496;13.456;2023-07-22T15:11:59;23.10;44.20
70079;DHT22;57451;52.496;13.456;2023-07-22T15:14:27;23.10;44.60
70079;DHT22;57451;52.496;13.456;2023-07-22T15:16:54;23.10;44.40
70079;DHT22;57451;52.496;13.456;2023-07-22T15:19:23;23.00;44.80
70079;DHT22;57451;52.496;13.456;2023-07-22T15:21:50;23.00;44.40
70079;DHT22;57451;52.496;13.456;2023-07-22T15:24:18;23.00;44.80